Time;durP1;ratioP1;P1;durP2;ratioP2;P2;SDS_P1;SDS_P2;PMS_P1;PMS_P2;Temp;Humidity;BMP_temperature;BMP_pressure;BME280_temperature;BME280_humidity;BME280_pressure;Samples;Min_cycle;Max_cycle;Signal;HPM_P1;HPM_P2
2021/03/25 00:01:27;;;;;;;21.73;15.15;;;4.70;99.90;;;;;;5047332;28;20036;-71
2021/03/25 00:03:55;;;;;;;20.27;15.55;;;4.60;99.90;;;;;;5045480;28;20049;-71
2021/03/25 00:06:26;;;;;;;23.67;16.92;;;4.60;99.90;;;;;;5053066;28;20049;-72
2021/03/25 00:08:53;;;;;;;27.20;16.77;;;4.60;99.90;;;;;;5046542;28;20132;-71
2021/03/25 00:11:20;;;;;;;23.83;16.40;;;4.50;99.90;;;;;;5053566;28;20075;-71
2021/03/25 00:13:47;;;;;;;22.42;15.82;;;4.50;99.90;;;;;;5041650;28;20140;-71
2021/03/25 00:16:15;;;;;;;24.17;15.45;;;4.50;99.90;;;;;;5043797;28;20051;-71
2021/03/25 00:18:42;;;;;;;23.98;15.70;;;4.50;99.90;;;;;;5052163;28;20059;-70
2021/03/25 00:21:11;;;;;;;24.25;16.05;;;4.50;99.90;;;;;;5040801;28;20045;-70
2021/03/25 00:23:38;;;;;;;21.30;14.88;;;4.50;99.90;;;;;;5045638;28;20132;-70
2021/03/25 00:26:05;;;;;;;18.73;14.65;;;4.40;99.90;;;;;;5040955;28;20141;-71
2021/03/25 00:28:32;;;;;;;24.90;16.27;;;4.40;99.90;;;;;;5053526;28;20473;-71
2021/03/25 00:30:58;;;;;;;25.38;16.08;;;4.40;99.90;;;;;;5045303;28;20056;-71
2021/03/25 00:33:25;;;;;;;24.52;16.63;;;4.40;99.90;;;;;;5043939;28;20486;-71
2021/03/25 00:35:52;;;;;;;26.10;16.13;;;4.40;99.90;;;;;;5035137;28;20072;-70
2021/03/25 00:38:20;;;;;;;24.17;15.68;;;4.40;99.90;;;;;;5030877;28;20051;-70
2021/03/25 00:40:51;;;;;;;26.10;16.73;;;4.30;99.90;;;;;;5032956;28;20060;-70
2021/03/25 00:43:22;;;;;;;24.67;16.98;;;4.30;99.90;;;;;;5033524;28;20051;-70
2021/03/25 00:45:50;;;;;;;23.95;15.88;;;4.20;99.90;;;;;;5039484;28;20466;-71
2021/03/25 00:48:20;;;;;;;28.00;17.83;;;4.20;99.90;;;;;;5051048;28;20402;-70
2021/03/25 00:50:49;;;;;;;24.85;17.60;;;4.30;99.90;;;;;;5046978;28;20454;-70
2021/03/25 00:53:19;;;;;;;27.38;17.02;;;4.20;99.90;;;;;;5052342;28;20063;-70
2021/03/25 00:55:46;;;;;;;22.67;15.88;;;4.20;99.90;;;;;;5048768;28;20041;-70
2021/03/25 00:58:13;;;;;;;26.73;17.10;;;4.20;99.90;;;;;;5046535;28;20053;-70
2021/03/25 01:00:43;;;;;;;29.27;16.65;;;4.20;99.90;;;;;;5045288;28;20053;-70
2021/03/25 01:03:10;;;;;;;26.92;16.85;;;4.20;99.90;;;;;;5043672;28;20050;-70
2021/03/25 01:05:38;;;;;;;25.83;17.40;;;4.10;99.90;;;;;;5043141;28;20056;-70
2021/03/25 01:08:05;;;;;;;25.35;16.83;;;4.10;99.90;;;;;;5039236;28;20053;-70
2021/03/25 01:10:32;;;;;;;29.05;17.98;;;4.10;99.90;;;;;;5050398;28;20056;-70
2021/03/25 01:13:00;;;;;;;23.08;16.27;;;4.10;99.90;;;;;;5039716;28;20050;-70
2021/03/25 01:15:27;;;;;;;24.75;16.58;;;4.00;99.90;;;;;;5043747;28;20048;-70
2021/03/25 01:17:55;;;;;;;28.73;17.27;;;4.00;99.90;;;;;;5039971;28;20045;-70
2021/03/25 01:20:33;;;;;;;24.05;15.95;;;4.00;99.90;;;;;;5044609;28;20041;-70
2021/03/25 01:22:59;;;;;;;25.17;16.17;;;4.00;99.90;;;;;;5046843;28;20392;-71
2021/03/25 01:25:27;;;;;;;27.20;18.02;;;3.90;99.90;;;;;;5048196;28;20057;-70
2021/03/25 01:27:55;;;;;;;25.20;16.55;;;4.00;99.90;;;;;;5038567;28;20055;-70
2021/03/25 01:30:23;;;;;;;21.48;15.77;;;3.90;99.90;;;;;;5040850;28;20056;-70
2021/03/25 01:32:50;;;;;;;25.25;16.67;;;3.90;99.90;;;;;;5035891;28;20053;-71
2021/03/25 01:35:17;;;;;;;26.23;17.05;;;3.90;99.90;;;;;;5032233;28;20103;-71
2021/03/25 01:37:45;;;;;;;24.77;17.13;;;3.80;99.90;;;;;;5031207;28;20049;-71
2021/03/25 01:40:41;;;;;;;24.00;17.17;;;3.80;99.90;;;;;;5032025;28;20045;-71
2021/03/25 01:43:37;;;;;;;26.73;16.80;;;3.80;99.90;;;;;;5033493;28;20057;-71
2021/03/25 01:46:27;;;;;;;27.55;16.63;;;3.80;99.90;;;;;;5029704;28;20053;-71
2021/03/25 01:48:58;;;;;;;24.23;15.80;;;3.70;99.90;;;;;;5040564;28;20052;-71
2021/03/25 01:51:41;;;;;;;24.88;15.95;;;3.70;99.90;;;;;;5044270;28;20056;-71
2021/03/25 01:54:07;;;;;;;;;;;3.70;99.90;;;;;;5050568;28;20050;-71
2021/03/25 01:56:47;;;;;;;27.63;15.82;;;3.60;99.90;;;;;;5050334;28;19924;-71
2021/03/25 01:59:38;;;;;;;23.20;14.95;;;3.60;99.90;;;;;;5041802;28;20052;-71
2021/03/25 02:02:14;;;;;;;24.27;15.90;;;3.60;99.90;;;;;;5051406;28;20056;-71
2021/03/25 02:04:56;;;;;;;27.50;16.23;;;3.60;99.90;;;;;;5051599;28;20299;-71
2021/03/25 02:07:46;;;;;;;25.00;15.70;;;3.60;99.90;;;;;;5046384;28;20049;-71
2021/03/25 02:10:51;;;;;;;25.33;16.13;;;3.60;99.90;;;;;;5051093;28;20060;-71
2021/03/25 02:13:30;;;;;;;27.27;16.67;;;3.60;99.90;;;;;;5031134;28;20475;-71
2021/03/25 02:15:57;;;;;;;25.50;16.00;;;3.60;99.90;;;;;;5044757;28;20048;-71
2021/03/25 02:18:30;;;;;;;24.27;15.80;;;3.60;99.90;;;;;;5048661;28;20045;-71
2021/03/25 02:21:05;;;;;;;23.70;16.58;;;3.50;99.90;;;;;;5038591;28;20053;-71
2021/03/25 02:23:56;;;;;;;23.05;15.32;;;3.50;99.90;;;;;;5045773;28;20128;-71
2021/03/25 02:26:38;;;;;;;26.17;16.15;;;3.50;99.90;;;;;;5045316;28;20491;-72
2021/03/25 02:29:13;;;;;;;25.60;15.77;;;3.50;99.90;;;;;;5044413;28;20056;-71
2021/03/25 02:31:43;;;;;;;26.30;16.40;;;3.50;99.90;;;;;;5040228;28;20061;-71
2021/03/25 02:34:17;;;;;;;36.97;17.13;;;3.50;99.90;;;;;;5037732;28;20472;-71
2021/03/25 02:36:47;;;;;;;27.15;16.33;;;3.50;99.90;;;;;;5041316;28;20049;-71
2021/03/25 02:39:21;;;;;;;29.05;16.65;;;3.50;99.90;;;;;;5043437;28;20140;-71
2021/03/25 02:42:10;;;;;;;23.67;15.48;;;3.50;99.90;;;;;;5044434;28;20045;-70
2021/03/25 02:44:45;;;;;;;25.70;16.23;;;3.50;99.90;;;;;;5043385;28;20052;-71
2021/03/25 02:47:14;;;;;;;27.27;16.38;;;3.50;99.90;;;;;;5043155;28;20038;-71
2021/03/25 02:49:48;;;;;;;28.83;17.23;;;3.50;99.90;;;;;;5044622;28;20531;-71
2021/03/25 02:52:15;;;;;;;27.77;16.90;;;3.50;99.90;;;;;;5031172;28;20056;-71
2021/03/25 02:54:42;;;;;;;27.27;16.27;;;3.40;99.90;;;;;;5032327;28;20914;-71
2021/03/25 02:57:21;;;;;;;26.67;17.05;;;3.40;99.90;;;;;;5051080;28;20047;-71
2021/03/25 02:59:51;;;;;;;24.90;16.23;;;3.40;99.90;;;;;;5051027;28;20061;-71
2021/03/25 03:02:38;;;;;;;30.15;17.10;;;3.30;99.90;;;;;;5044951;28;20419;-71
2021/03/25 03:05:10;;;;;;;28.30;18.30;;;3.30;99.90;;;;;;5049483;28;20059;-71
2021/03/25 03:08:02;;;;;;;24.73;14.88;;;3.30;99.90;;;;;;5054908;28;20059;-71
2021/03/25 03:10:43;;;;;;;29.65;17.50;;;3.30;99.90;;;;;;5054207;28;20475;-71
2021/03/25 03:13:13;;;;;;;24.63;16.03;;;3.20;99.90;;;;;;5054800;28;20047;-71
2021/03/25 03:15:46;;;;;;;26.58;15.60;;;3.20;99.90;;;;;;5041934;28;20049;-71
2021/03/25 03:18:20;;;;;;;28.73;16.38;;;3.10;99.90;;;;;;5053362;28;20055;-70
2021/03/25 03:20:51;;;;;;;24.00;15.60;;;3.10;99.90;;;;;;5049702;28;20049;-71
2021/03/25 03:23:18;;;;;;;29.63;16.33;;;3.10;99.90;;;;;;5054428;28;20049;-71
2021/03/25 03:25:44;;;;;;;23.98;15.05;;;3.00;99.90;;;;;;5050797;28;20056;-71
2021/03/25 03:28:24;;;;;;;24.63;16.23;;;3.00;99.90;;;;;;5045695;28;20411;-70
2021/03/25 03:31:00;;;;;;;26.05;16.20;;;3.00;99.90;;;;;;5042042;28;20427;-70
2021/03/25 03:33:36;;;;;;;26.90;15.48;;;3.00;99.90;;;;;;5053433;28;20049;-71
2021/03/25 03:36:07;;;;;;;24.92;15.15;;;3.00;99.90;;;;;;5051442;28;20056;-70
2021/03/25 03:38:41;;;;;;;25.33;15.05;;;3.00;99.90;;;;;;5039577;28;20045;-70
2021/03/25 03:41:11;;;;;;;26.80;16.60;;;3.00;99.90;;;;;;5053389;28;20049;-70
2021/03/25 03:43:38;;;;;;;36.58;16.85;;;3.00;99.90;;;;;;5052382;28;20048;-70
2021/03/25 03:46:09;;;;;;;26.08;15.90;;;3.00;99.90;;;;;;5050185;28;20495;-70
2021/03/25 03:48:41;;;;;;;27.10;16.73;;;3.00;99.90;;;;;;5046211;28;20049;-70
2021/03/25 03:51:14;;;;;;;26.42;16.13;;;3.00;99.90;;;;;;5052531;28;20519;-71
2021/03/25 03:53:40;;;;;;;;;;;3.00;99.90;;;;;;5053408;28;20057;-70
2021/03/25 03:56:17;;;;;;;29.70;16.88;;;3.00;99.90;;;;;;5054102;28;19927;-70
2021/03/25 03:58:50;;;;;;;28.67;15.70;;;2.90;99.90;;;;;;5049857;28;20056;-70
2021/03/25 04:01:33;;;;;;;25.65;16.05;;;3.00;99.90;;;;;;5037276;28;20045;-70
2021/03/25 04:04:04;;;;;;;27.65;15.93;;;2.90;99.90;;;;;;5033473;28;20488;-70
2021/03/25 04:06:45;;;;;;;29.33;16.95;;;2.90;99.90;;;;;;5043573;28;20396;-70
2021/03/25 04:09:20;;;;;;;26.58;15.98;;;2.90;99.90;;;;;;5041787;28;20041;-71
2021/03/25 04:11:56;;;;;;;26.63;15.88;;;2.90;99.90;;;;;;5050781;28;20048;-71
2021/03/25 04:14:29;;;;;;;29.13;17.55;;;2.90;99.90;;;;;;5041066;28;20395;-71
2021/03/25 04:17:00;;;;;;;27.13;16.83;;;2.90;99.90;;;;;;5047526;28;20056;-71
2021/03/25 04:19:39;;;;;;;33.13;16.95;;;2.90;99.90;;;;;;5051225;28;20045;-71
2021/03/25 04:22:14;;;;;;;24.73;15.90;;;2.90;99.90;;;;;;5050786;28;20132;-71
2021/03/25 04:24:53;;;;;;;34.50;17.67;;;2.90;99.90;;;;;;5053579;28;20143;-70
2021/03/25 04:27:25;;;;;;;28.77;16.60;;;2.90;99.90;;;;;;5053453;28;20140;-70
2021/03/25 04:30:05;;;;;;;32.45;17.00;;;2.80;99.90;;;;;;5053212;28;20048;-70
2021/03/25 04:32:31;;;;;;;31.30;16.75;;;2.80;99.90;;;;;;5052275;28;20557;-70
2021/03/25 04:35:00;;;;;;;30.00;17.08;;;2.80;99.90;;;;;;5047179;28;20170;-70
2021/03/25 04:37:31;;;;;;;27.92;16.33;;;2.80;99.90;;;;;;5052640;28;20056;-71
2021/03/25 04:40:00;;;;;;;28.13;17.27;;;2.80;99.90;;;;;;5051708;28;20045;-71
2021/03/25 04:42:28;;;;;;;26.52;16.38;;;2.80;99.90;;;;;;5045299;28;20080;-71
2021/03/25 04:45:16;;;;;;;30.27;17.20;;;2.80;99.90;;;;;;5046577;28;20041;-71
2021/03/25 04:47:46;;;;;;;28.88;17.52;;;2.80;99.90;;;;;;5051529;28;20080;-72
2021/03/25 04:50:21;;;;;;;27.42;16.38;;;2.80;99.90;;;;;;5046842;28;20140;-73
2021/03/25 04:52:48;;;;;;;29.67;17.40;;;2.80;99.90;;;;;;5032508;28;20057;-72
2021/03/25 04:55:19;;;;;;;30.02;16.77;;;2.80;99.90;;;;;;5051567;28;20063;-72
2021/03/25 04:57:57;;;;;;;29.25;16.83;;;2.80;99.90;;;;;;5045075;28;20073;-72
2021/03/25 05:00:28;;;;;;;30.83;17.70;;;2.80;99.90;;;;;;5050594;28;20402;-70
2021/03/25 05:03:03;;;;;;;28.33;16.27;;;2.80;99.90;;;;;;5051420;28;20053;-70
2021/03/25 05:05:31;;;;;;;27.50;17.83;;;2.70;99.90;;;;;;5051536;28;20049;-70
2021/03/25 05:08:11;;;;;;;29.55;17.02;;;2.70;99.90;;;;;;5044801;28;20044;-70
2021/03/25 05:10:50;;;;;;;29.17;16.52;;;2.70;99.90;;;;;;5050762;28;20063;-71
2021/03/25 05:13:31;;;;;;;29.63;17.80;;;2.70;99.90;;;;;;5046414;28;20433;-71
2021/03/25 05:16:15;;;;;;;27.02;16.48;;;2.70;99.90;;;;;;5050421;28;20049;-71
2021/03/25 05:19:15;;;;;;;29.00;17.10;;;2.70;99.90;;;;;;5045997;28;20055;-71
2021/03/25 05:22:18;;;;;;;34.83;17.83;;;2.70;99.90;;;;;;5046660;28;20396;-71
2021/03/25 05:25:03;;;;;;;29.30;17.15;;;2.70;99.90;;;;;;5038029;28;20053;-71
2021/03/25 05:27:37;;;;;;;27.27;16.88;;;2.70;99.90;;;;;;5049604;28;20080;-71
2021/03/25 05:30:08;;;;;;;25.73;16.17;;;2.80;99.90;;;;;;5052294;28;20411;-71
2021/03/25 05:32:40;;;;;;;29.73;17.75;;;2.80;99.90;;;;;;5050604;28;20053;-71
2021/03/25 05:35:12;;;;;;;34.33;16.77;;;2.90;99.90;;;;;;5051805;28;20053;-71
2021/03/25 05:37:39;;;;;;;28.25;16.38;;;2.90;99.90;;;;;;5038704;28;20150;-71
2021/03/25 05:40:19;;;;;;;29.02;17.60;;;3.00;99.90;;;;;;5051512;28;20056;-71
2021/03/25 05:42:56;;;;;;;36.67;19.00;;;3.10;99.90;;;;;;5049194;28;20517;-71
2021/03/25 05:45:33;;;;;;;33.17;17.92;;;3.10;99.90;;;;;;5051673;28;20076;-70
2021/03/25 05:48:35;;;;;;;27.30;16.52;;;3.30;99.90;;;;;;5047069;28;20064;-70
2021/03/25 05:51:12;;;;;;;;;;;3.40;99.90;;;;;;5052308;28;20052;-70
2021/03/25 05:54:22;;;;;;;32.22;17.30;;;3.50;99.90;;;;;;5050760;28;19932;-71
2021/03/25 05:56:49;;;;;;;27.55;16.58;;;3.60;99.90;;;;;;5048056;28;20487;-70
2021/03/25 05:59:17;;;;;;;28.88;17.92;;;3.70;99.90;;;;;;5050704;28;20383;-72
2021/03/25 06:01:52;;;;;;;31.88;18.23;;;3.80;99.90;;;;;;5048983;28;20487;-70
2021/03/25 06:04:25;;;;;;;30.88;17.45;;;4.00;99.90;;;;;;5042275;28;20045;-71
2021/03/25 06:07:16;;;;;;;34.88;18.58;;;4.10;99.90;;;;;;5050636;28;20053;-71
2021/03/25 06:09:54;;;;;;;33.78;19.38;;;4.10;99.90;;;;;;5042918;28;20136;-70
2021/03/25 06:12:57;;;;;;;34.75;19.70;;;4.30;99.90;;;;;;5048467;28;20060;-71
2021/03/25 06:15:24;;;;;;;36.35;19.23;;;4.30;99.90;;;;;;5063678;28;20407;-70
2021/03/25 06:17:53;;;;;;;37.10;19.10;;;4.40;99.90;;;;;;5044936;28;20492;-70
2021/03/25 06:20:33;;;;;;;29.35;18.67;;;4.40;99.90;;;;;;5045879;28;20045;-70
2021/03/25 06:23:29;;;;;;;34.58;19.92;;;4.50;99.90;;;;;;5040915;28;20041;-70
2021/03/25 06:26:22;;;;;;;29.23;17.73;;;4.60;99.90;;;;;;5051516;28;20052;-70
2021/03/25 06:29:04;;;;;;;34.08;19.92;;;4.70;99.90;;;;;;5042923;28;20079;-72
2021/03/25 06:31:48;;;;;;;35.50;20.33;;;4.70;99.90;;;;;;5045754;28;20095;-70
2021/03/25 06:34:30;;;;;;;31.50;19.23;;;4.80;99.90;;;;;;5048616;28;20466;-70
2021/03/25 06:37:00;;;;;;;29.00;18.83;;;4.90;99.90;;;;;;5042509;28;20612;-70
2021/03/25 06:39:45;;;;;;;28.65;19.10;;;5.00;99.90;;;;;;5049074;28;20052;-70
2021/03/25 06:42:14;;;;;;;32.05;18.75;;;5.00;99.90;;;;;;5050438;28;20380;-71
2021/03/25 06:45:00;;;;;;;36.42;20.52;;;5.10;99.90;;;;;;5050316;28;20045;-71
2021/03/25 06:47:47;;;;;;;33.30;20.85;;;5.20;99.90;;;;;;5041238;28;20056;-71
2021/03/25 06:50:19;;;;;;;31.48;18.88;;;5.20;99.90;;;;;;5046733;28;20411;-71
2021/03/25 06:52:45;;;;;;;31.85;19.25;;;5.30;99.90;;;;;;5047154;28;20407;-71
2021/03/25 06:55:19;;;;;;;27.42;18.17;;;5.40;99.90;;;;;;5043960;28;20091;-71
2021/03/25 06:57:58;;;;;;;34.97;20.55;;;5.50;99.90;;;;;;5034445;28;20095;-71
2021/03/25 07:00:28;;;;;;;30.73;19.00;;;5.70;99.90;;;;;;5036257;28;20050;-71
2021/03/25 07:02:56;;;;;;;30.98;20.10;;;5.80;99.90;;;;;;5038021;28;20049;-71
2021/03/25 07:05:29;;;;;;;33.60;19.58;;;5.90;99.90;;;;;;5038503;28;20061;-71
2021/03/25 07:08:15;;;;;;;30.20;19.08;;;6.00;99.90;;;;;;5038087;28;20049;-71
2021/03/25 07:10:43;;;;;;;32.42;21.15;;;6.00;99.90;;;;;;5036199;28;20064;-71
2021/03/25 07:13:17;;;;;;;34.63;21.83;;;6.10;99.90;;;;;;5048252;28;20414;-72
2021/03/25 07:15:53;;;;;;;43.88;24.00;;;6.20;99.90;;;;;;5045360;28;20053;-71
2021/03/25 07:18:28;;;;;;;37.65;21.65;;;6.40;99.90;;;;;;5031229;28;20067;-70
2021/03/25 07:21:34;;;;;;;32.33;21.27;;;6.50;99.90;;;;;;5045637;28;20045;-70
2021/03/25 07:24:12;;;;;;;30.65;20.00;;;6.70;99.90;;;;;;5037096;28;20442;-70
2021/03/25 07:26:46;;;;;;;31.25;22.38;;;6.90;99.90;;;;;;5039311;28;20060;-69
2021/03/25 07:29:33;;;;;;;36.33;22.75;;;7.10;99.90;;;;;;5031849;28;20136;-70
2021/03/25 07:32:05;;;;;;;33.45;22.27;;;7.20;99.90;;;;;;5042833;28;20511;-70
2021/03/25 07:34:33;;;;;;;34.65;22.05;;;7.40;99.90;;;;;;5043504;28;20147;-71
2021/03/25 07:37:01;;;;;;;34.75;20.23;;;7.50;99.90;;;;;;5036419;28;20107;-70
2021/03/25 07:39:49;;;;;;;47.75;29.08;;;7.70;99.90;;;;;;5031324;28;20053;-70
2021/03/25 07:42:35;;;;;;;52.40;30.90;;;7.80;99.90;;;;;;5047510;28;20063;-71
2021/03/25 07:45:28;;;;;;;28.52;20.45;;;8.00;99.90;;;;;;5047381;28;20120;-70
2021/03/25 07:48:20;;;;;;;33.25;20.48;;;8.10;99.90;;;;;;5046369;28;20053;-70
2021/03/25 07:50:50;;;;;;;33.60;22.40;;;8.30;99.90;;;;;;5049096;28;20056;-70
2021/03/25 07:53:21;;;;;;;31.08;20.05;;;8.50;99.90;;;;;;5050807;28;20049;-71
2021/03/25 07:55:48;;;;;;;33.90;20.13;;;8.60;99.90;;;;;;5043152;28;20054;-70
2021/03/25 07:58:53;;;;;;;35.45;20.75;;;8.70;99.90;;;;;;5038235;28;20047;-71
2021/03/25 08:01:23;;;;;;;31.92;20.35;;;8.90;99.90;;;;;;4978643;28;20046;-71
2021/03/25 08:03:50;;;;;;;34.28;21.35;;;9.10;99.90;;;;;;4991987;28;20074;-71
2021/03/25 08:06:22;;;;;;;30.40;20.10;;;9.20;99.90;;;;;;4990390;28;20144;-71
2021/03/25 08:09:12;;;;;;;32.47;20.10;;;9.40;99.90;;;;;;4991104;28;20140;-71
2021/03/25 08:11:55;;;;;;;31.92;20.90;;;9.50;99.90;;;;;;4990195;28;20054;-70
2021/03/25 08:14:29;;;;;;;33.72;20.30;;;9.70;99.90;;;;;;4974594;28;20056;-70
2021/03/25 08:17:09;;;;;;;36.00;22.40;;;9.80;99.90;;;;;;4973959;28;20050;-71
2021/03/25 08:19:40;;;;;;;38.95;23.90;;;9.90;99.90;;;;;;4988571;28;20093;-71
2021/03/25 08:22:15;;;;;;;37.60;21.33;;;10.00;99.90;;;;;;4990454;28;20557;-70
2021/03/25 08:25:35;;;;;;;27.77;20.45;;;10.20;99.90;;;;;;4990684;28;20420;-71
2021/03/25 08:28:33;;;;;;;33.85;21.35;;;10.30;99.90;;;;;;4924222;29;20126;-70
2021/03/25 08:31:20;;;;;;;28.70;20.20;;;10.50;99.90;;;;;;4933094;28;20048;-72
2021/03/25 08:34:07;;;;;;;33.05;20.45;;;10.70;99.90;;;;;;4974741;28;20433;-71
2021/03/25 08:37:06;;;;;;;37.47;21.00;;;10.90;99.90;;;;;;4966399;28;20050;-70
2021/03/25 08:39:54;;;;;;;28.75;20.80;;;11.00;99.90;;;;;;4968158;28;20101;-70
2021/03/25 08:42:32;;;;;;;37.78;21.23;;;11.20;99.90;;;;;;4970953;28;20057;-71
2021/03/25 08:45:26;;;;;;;34.28;24.63;;;11.30;99.90;;;;;;4971687;28;20047;-71
2021/03/25 08:48:02;;;;;;;31.33;22.23;;;11.60;99.90;;;;;;4980176;28;20046;-71
2021/03/25 08:50:35;;;;;;;30.15;21.17;;;11.80;99.90;;;;;;4969913;28;20046;-71
2021/03/25 08:53:16;;;;;;;27.52;20.38;;;11.90;99.90;;;;;;4988004;28;20200;-71
2021/03/25 08:55:45;;;;;;;33.80;22.58;;;12.10;99.90;;;;;;4971778;28;20047;-71
2021/03/25 08:58:20;;;;;;;36.45;23.63;;;12.20;99.90;;;;;;4971362;28;20057;-71
2021/03/25 09:01:01;;;;;;;31.85;20.70;;;12.20;99.90;;;;;;4981832;28;20054;-71
2021/03/25 09:03:41;;;;;;;38.58;22.25;;;12.50;99.90;;;;;;5052161;28;20076;-70
2021/03/25 09:06:11;;;;;;;34.70;22.10;;;12.70;99.90;;;;;;5042544;28;20430;-71
2021/03/25 09:08:39;;;;;;;33.60;21.65;;;12.80;99.90;;;;;;5052164;28;20090;-71
2021/03/25 09:11:10;;;;;;;33.47;22.48;;;12.90;99.90;;;;;;5051373;28;20491;-71
2021/03/25 09:13:58;;;;;;;39.63;24.05;;;13.30;99.90;;;;;;5052865;28;20057;-71
2021/03/25 09:16:35;;;;;;;39.13;25.20;;;13.60;99.90;;;;;;5040765;28;20061;-71
2021/03/25 09:19:15;;;;;;;42.22;23.40;;;13.70;99.90;;;;;;5047491;28;20044;-70
2021/03/25 09:21:47;;;;;;;29.95;21.23;;;13.90;99.90;;;;;;5051091;28;20045;-71
2021/03/25 09:24:14;;;;;;;31.65;21.70;;;14.20;99.90;;;;;;5051637;28;20048;-71
2021/03/25 09:26:45;;;;;;;31.58;21.95;;;14.20;99.90;;;;;;5051923;28;20049;-70
2021/03/25 09:29:13;;;;;;;35.30;21.53;;;14.40;99.90;;;;;;5052206;28;20049;-71
2021/03/25 09:31:54;;;;;;;26.63;20.40;;;14.40;99.90;;;;;;5044934;28;20288;-70
2021/03/25 09:34:24;;;;;;;28.15;19.88;;;14.50;99.90;;;;;;5036404;28;20049;-70
2021/03/25 09:37:13;;;;;;;41.55;22.30;;;14.70;99.90;;;;;;5049126;28;20049;-71
2021/03/25 09:39:39;;;;;;;30.75;21.42;;;14.70;99.90;;;;;;5048857;28;20045;-71
2021/03/25 09:42:15;;;;;;;27.15;19.60;;;14.90;99.90;;;;;;5051452;28;20049;-71
2021/03/25 09:45:29;;;;;;;30.25;19.00;;;15.00;99.90;;;;;;5052480;28;20041;-69
2021/03/25 09:48:01;;;;;;;31.13;19.23;;;15.20;99.90;;;;;;5041074;28;20119;-70
2021/03/25 09:50:30;;;;;;;27.30;19.98;;;15.40;99.90;;;;;;5045545;28;20077;-70
2021/03/25 09:53:11;;;;;;;30.60;20.10;;;15.30;99.90;;;;;;5049818;28;20045;-70
2021/03/25 09:55:56;;;;;;;28.60;19.60;;;15.30;99.90;;;;;;5050754;28;20059;-69
2021/03/25 09:58:47;;;;;;;28.35;19.13;;;15.50;99.90;;;;;;5047659;28;20041;-70
2021/03/25 10:01:43;;;;;;;21.75;17.63;;;15.60;99.90;;;;;;5038630;28;20527;-71
2021/03/25 10:04:32;;;;;;;24.52;16.75;;;15.60;99.90;;;;;;5051779;28;20420;-70
2021/03/25 10:07:23;;;;;;;25.55;18.17;;;16.00;99.90;;;;;;5047991;28;20045;-71
2021/03/25 10:09:50;;;;;;;25.27;18.10;;;16.20;99.90;;;;;;5049301;28;20049;-70
2021/03/25 10:12:43;;;;;;;24.40;17.65;;;16.30;99.90;;;;;;5046597;28;20326;-70
2021/03/25 10:15:41;;;;;;;26.33;18.08;;;16.50;99.90;;;;;;5048728;28;20060;-72
2021/03/25 10:18:16;;;;;;;26.73;18.90;;;16.70;99.90;;;;;;5039575;28;20059;-70
2021/03/25 10:20:47;;;;;;;29.30;18.92;;;16.90;99.70;;;;;;5050172;28;20053;-70
2021/03/25 10:23:23;;;;;;;27.13;19.40;;;16.80;98.30;;;;;;5042687;28;20099;-71
2021/03/25 10:26:11;;;;;;;24.60;18.27;;;16.80;98.50;;;;;;5050118;28;20463;-70
2021/03/25 10:28:51;;;;;;;23.88;19.27;;;17.00;98.50;;;;;;5040045;28;20053;-70
2021/03/25 10:31:30;;;;;;;28.15;20.40;;;17.20;97.00;;;;;;5050834;28;20055;-70
2021/03/25 10:34:03;;;;;;;26.90;19.25;;;17.20;96.60;;;;;;5051222;28;20057;-70
2021/03/25 10:36:48;;;;;;;28.20;19.60;;;17.10;96.30;;;;;;5055924;28;20059;-70
2021/03/25 10:39:28;;;;;;;26.83;18.20;;;17.40;95.60;;;;;;5051882;28;20045;-70
2021/03/25 10:41:56;;;;;;;23.23;17.92;;;17.80;94.00;;;;;;5048118;28;20502;-70
2021/03/25 10:44:32;;;;;;;26.00;19.08;;;18.20;93.60;;;;;;5053043;28;20057;-71
2021/03/25 10:47:07;;;;;;;26.77;19.50;;;18.40;93.00;;;;;;5051911;28;20049;-72
2021/03/25 10:49:47;;;;;;;24.17;19.10;;;18.60;91.90;;;;;;5045517;28;20131;-71
2021/03/25 10:52:37;;;;;;;26.35;19.55;;;18.30;90.40;;;;;;5049995;28;20052;-71
2021/03/25 10:55:25;;;;;;;24.77;18.23;;;18.30;90.20;;;;;;5040565;28;20060;-69
2021/03/25 10:57:53;;;;;;;24.13;19.13;;;18.30;90.40;;;;;;5048319;28;20053;-70
2021/03/25 11:00:35;;;;;;;23.58;18.33;;;18.40;90.00;;;;;;5045901;28;20050;-69
2021/03/25 11:03:20;;;;;;;23.80;18.70;;;18.50;89.60;;;;;;5045241;28;20075;-70
2021/03/25 11:05:54;;;;;;;22.25;18.35;;;18.60;88.50;;;;;;5050927;28;20096;-71
2021/03/25 11:08:32;;;;;;;22.92;18.52;;;19.00;87.10;;;;;;5046616;28;20526;-69
2021/03/25 11:11:03;;;;;;;27.83;19.70;;;19.00;86.60;;;;;;5032112;28;20050;-70
2021/03/25 11:13:30;;;;;;;26.85;17.45;;;19.00;87.20;;;;;;5031020;28;20095;-72
2021/03/25 11:16:16;;;;;;;22.35;17.85;;;19.20;87.80;;;;;;5036497;28;20057;-69
2021/03/25 11:18:54;;;;;;;22.85;17.98;;;19.40;85.20;;;;;;5043261;28;20051;-70
2021/03/25 11:21:34;;;;;;;23.00;17.95;;;19.50;83.70;;;;;;5051397;28;20045;-70
2021/03/25 11:24:09;;;;;;;23.20;17.00;;;19.50;82.40;;;;;;5052483;28;20044;-71
2021/03/25 11:26:37;;;;;;;25.27;19.88;;;19.30;82.20;;;;;;5054517;28;20060;-70
2021/03/25 11:29:07;;;;;;;22.30;18.77;;;19.50;82.30;;;;;;5036598;28;20049;-70
2021/03/25 11:31:35;;;;;;;23.52;16.80;;;19.90;81.10;;;;;;5045629;28;20053;-70
2021/03/25 11:34:04;;;;;;;23.23;17.63;;;20.50;80.10;;;;;;5048849;28;20491;-71
2021/03/25 11:36:36;;;;;;;26.17;17.30;;;20.80;79.40;;;;;;5051871;28;20041;-72
2021/03/25 11:39:18;;;;;;;21.15;15.95;;;20.80;78.30;;;;;;5054790;28;20494;-71
2021/03/25 11:41:46;;;;;;;17.23;15.10;;;20.80;77.70;;;;;;5052853;28;20049;-69
2021/03/25 11:44:39;;;;;;;20.85;17.05;;;21.00;76.00;;;;;;5055371;28;20675;-70
2021/03/25 11:47:36;;;;;;;20.88;17.05;;;21.00;75.50;;;;;;5045215;28;20141;-67
2021/03/25 11:50:27;;;;;;;20.80;17.05;;;21.00;75.10;;;;;;5043663;28;20449;-68
2021/03/25 11:53:00;;;;;;;22.65;17.05;;;21.20;74.40;;;;;;5046024;28;20052;-68
2021/03/25 11:55:33;;;;;;;20.58;17.48;;;21.60;74.50;;;;;;5042891;28;20048;-69
2021/03/25 11:58:19;;;;;;;21.08;16.85;;;22.10;73.50;;;;;;5047943;28;20045;-69
2021/03/25 12:00:55;;;;;;;22.90;17.40;;;22.70;72.60;;;;;;5047859;28;20056;-69
2021/03/25 12:03:28;;;;;;;22.70;17.00;;;22.40;70.90;;;;;;5047878;28;20048;-69
2021/03/25 12:05:55;;;;;;;19.55;16.58;;;22.50;70.20;;;;;;5053970;28;20084;-69
2021/03/25 12:08:26;;;;;;;20.17;16.25;;;22.70;69.30;;;;;;5053771;28;20055;-69
2021/03/25 12:11:09;;;;;;;18.95;15.35;;;22.90;68.40;;;;;;5053280;28;20088;-69
2021/03/25 12:13:37;;;;;;;19.20;15.20;;;22.80;67.70;;;;;;5050499;28;20056;-70
2021/03/25 12:16:07;;;;;;;22.80;17.05;;;22.20;69.30;;;;;;5052175;28;20084;-72
2021/03/25 12:18:38;;;;;;;19.88;15.18;;;22.50;68.20;;;;;;5050089;28;20037;-68
2021/03/25 12:21:10;;;;;;;19.33;16.35;;;22.30;67.20;;;;;;5043507;28;20135;-71
2021/03/25 12:23:39;;;;;;;17.48;15.30;;;22.00;67.20;;;;;;5036375;28;20063;-68
2021/03/25 12:26:10;;;;;;;16.92;14.93;;;21.90;68.70;;;;;;5032646;28;20049;-69
2021/03/25 12:28:37;;;;;;;19.58;15.32;;;22.10;66.90;;;;;;5033283;28;20087;-69
2021/03/25 12:31:04;;;;;;;16.15;13.90;;;22.00;67.10;;;;;;5045679;28;20045;-70
2021/03/25 12:33:34;;;;;;;23.23;15.13;;;21.80;66.60;;;;;;5052001;28;20049;-69
2021/03/25 12:36:02;;;;;;;17.30;14.52;;;22.10;66.20;;;;;;5051746;28;20132;-68
2021/03/25 12:38:29;;;;;;;16.73;14.35;;;21.60;67.10;;;;;;5052010;28;20055;-71
2021/03/25 12:40:56;;;;;;;17.35;13.82;;;21.90;66.20;;;;;;5037865;28;20454;-69
2021/03/25 12:43:25;;;;;;;16.85;14.00;;;22.60;66.10;;;;;;5051789;28;20064;-68
2021/03/25 12:45:55;;;;;;;15.52;13.85;;;22.70;65.20;;;;;;5051165;28;20049;-68
2021/03/25 12:48:23;;;;;;;17.92;13.55;;;22.70;64.30;;;;;;5038302;28;20048;-69
2021/03/25 12:50:51;;;;;;;15.90;13.48;;;23.00;64.40;;;;;;5050296;28;20156;-68
2021/03/25 12:53:18;;;;;;;15.23;12.98;;;23.30;63.20;;;;;;5050190;28;20715;-67
2021/03/25 12:55:44;;;;;;;13.90;12.50;;;23.30;62.40;;;;;;5051361;28;20075;-69
2021/03/25 12:58:31;;;;;;;15.15;12.63;;;23.10;62.30;;;;;;5052651;28;20048;-70
2021/03/25 13:01:00;;;;;;;14.23;12.75;;;23.20;62.00;;;;;;5035919;28;20057;-71
2021/03/25 13:03:28;;;;;;;15.48;13.88;;;23.20;61.70;;;;;;5048580;28;20366;-69
2021/03/25 13:05:55;;;;;;;13.55;12.20;;;23.60;61.20;;;;;;5051689;28;20396;-69
2021/03/25 13:08:22;;;;;;;17.10;12.45;;;23.60;61.40;;;;;;5051291;28;20059;-71
2021/03/25 13:11:10;;;;;;;15.63;12.68;;;24.00;61.10;;;;;;5042267;28;20060;-68
2021/03/25 13:13:37;;;;;;;14.15;12.65;;;24.20;61.00;;;;;;5052226;28;20049;-68
2021/03/25 13:16:04;;;;;;;13.82;12.52;;;24.10;60.80;;;;;;5050329;28;20049;-70
2021/03/25 13:18:30;;;;;;;14.88;13.48;;;24.70;61.10;;;;;;5049289;28;20045;-71